sensor_id;sensor_type;location;lat;lon;timestamp;temperature;humidity
7155;DHT22;3619;53.784;10.440;2023-03-19T00:02:04;10.20;99.90
7155;DHT22;3619;53.784;10.440;2023-03-19T00:04:33;10.20;99.90
7155;DHT22;3619;53.784;10.440;2023-03-19T00:07:00;10.20;99.90
7155;DHT22;3619;53.784;10.440;2023-03-19T00:09:28;10.10;99.90
7155;DHT22;3619;53.784;10.440;2023-03-19T00:11:55;10.10;99.90
7155;DHT22;3619;53.784;10.440;2023-03-19T00:14:23;10.00;99.90
7155;DHT22;3619;53.784;10.440;2023-03-19T00:16:52;10.00;99.90
7155;DHT22;3619;53.784;10.440;2023-03-19T00:19:18;9.90;99.90
7155;DHT22;3619;53.784;10.440;2023-03-19T00:21:45;9.90;99.90
7155;DHT22;3619;53.784;10.440;2023-03-19T00:24:14;9.90;99.90
7155;DHT22;3619;53.784;10.440;2023-03-19T00:26:43;9.70;99.90
7155;DHT22;3619;53.784;10.440;2023-03-19T00:29:10;9.80;99.90
7155;DHT22;3619;53.784;10.440;2023-03-19T00:31:37;9.70;99.90
7155;DHT22;3619;53.784;10.440;2023-03-19T00:34:05;9.70;99.90
7155;DHT22;3619;53.784;10.440;2023-03-19T00:36:32;9.70;99.90
7155;DHT22;3619;53.784;10.440;2023-03-19T00:39:00;9.70;99.90
7155;DHT22;3619;53.784;10.440;2023-03-19T00:42:00;9.80;99.90
7155;DHT22;3619;53.784;10.440;2023-03-19T00:44:28;9.90;99.90
7155;DHT22;3619;53.784;10.440;2023-03-19T00:46:56;10.00;99.90
7155;DHT22;3619;53.784;10.440;2023-03-19T00:49:46;9.90;99.90
7155;DHT22;3619;53.784;10.440;2023-03-19T00:52:31;9.90;99.90
7155;DHT22;3619;53.784;10.440;2023-03-19T00:55:01;9.90;99.90
7155;DHT22;3619;53.784;10.440;2023-03-19T00:57:44;10.00;99.90
7155;DHT22;3619;53.784;10.440;2023-03-19T01:00:12;10.10;99.90
7155;DHT22;3619;53.784;10.440;2023-03-19T01:02:45;10.00;99.90
7155;DHT22;3619;53.784;10.440;2023-03-19T01:05:17;10.00;99.90
7155;DHT22;3619;53.784;10.440;2023-03-19T01:07:44;10.00;99.90
7155;DHT22;3619;53.784;10.440;2023-03-19T01:10:17;9.80;99.90
7155;DHT22;3619;53.784;10.440;2023-03-19T01:12:49;9.80;99.90
7155;DHT22;3619;53.784;10.440;2023-03-19T01:15:17;9.70;99.90
7155;DHT22;3619;53.784;10.440;2023-03-19T01:17:49;9.60;99.90
7155;DHT22;3619;53.784;10.440;2023-03-19T01:20:18;9.50;99.90
7155;DHT22;3619;53.784;10.440;2023-03-19T01:22:48;9.50;99.90
7155;DHT22;3619;53.784;10.440;2023-03-19T01:25:19;9.50;99.90
7155;DHT22;3619;53.784;10.440;2023-03-19T01:27:58;9.50;99.90
7155;DHT22;3619;53.784;10.440;2023-03-19T01:30:30;9.40;99.90
7155;DHT22;3619;53.784;10.440;2023-03-19T01:33:11;9.40;99.90
7155;DHT22;3619;53.784;10.440;2023-03-19T01:35:48;9.40;99.90
7155;DHT22;3619;53.784;10.440;2023-03-19T01:38:19;9.40;99.90
7155;DHT22;3619;53.784;10.440;2023-03-19T01:41:11;9.40;99.90
7155;DHT22;3619;53.784;10.440;2023-03-19T01:43:50;9.40;99.90
7155;DHT22;3619;53.784;10.440;2023-03-19T01:46:36;9.50;99.90
7155;DHT22;3619;53.784;10.440;2023-03-19T01:49:31;9.50;99.90
7155;DHT22;3619;53.784;10.440;2023-03-19T01:52:14;9.50;99.90
7155;DHT22;3619;53.784;10.440;2023-03-19T01:54:45;9.30;99.90
7155;DHT22;3619;53.784;10.440;2023-03-19T01:57:35;9.50;99.90
7155;DHT22;3619;53.784;10.440;2023-03-19T02:00:31;9.50;99.90
7155;DHT22;3619;53.784;10.440;2023-03-19T02:03:14;9.50;99.90
7155;DHT22;3619;53.784;10.440;2023-03-19T02:05:44;9.40;99.90
7155;DHT22;3619;53.784;10.440;2023-03-19T02:08:14;9.40;99.90
7155;DHT22;3619;53.784;10.440;2023-03-19T02:10:46;9.30;99.90
7155;DHT22;3619;53.784;10.440;2023-03-19T02:13:14;9.30;99.90
7155;DHT22;3619;53.784;10.440;2023-03-19T02:15:43;9.30;99.90
7155;DHT22;3619;53.784;10.440;2023-03-19T02:18:11;9.20;99.90
7155;DHT22;3619;53.784;10.440;2023-03-19T02:20:44;9.20;99.90
7155;DHT22;3619;53.784;10.440;2023-03-19T02:23:20;9.30;99.90
7155;DHT22;3619;53.784;10.440;2023-03-19T02:26:02;9.30;99.90
7155;DHT22;3619;53.784;10.440;2023-03-19T02:28:33;9.30;99.90
7155;DHT22;3619;53.784;10.440;2023-03-19T02:31:01;9.30;99.90
7155;DHT22;3619;53.784;10.440;2023-03-19T02:33:29;9.30;99.90
7155;DHT22;3619;53.784;10.440;2023-03-19T02:35:57;9.30;99.90
7155;DHT22;3619;53.784;10.440;2023-03-19T02:38:24;9.40;99.90
7155;DHT22;3619;53.784;10.440;2023-03-19T02:40:59;9.30;99.90
7155;DHT22;3619;53.784;10.440;2023-03-19T02:43:34;9.20;99.90
7155;DHT22;3619;53.784;10.440;2023-03-19T02:46:02;9.20;99.90
7155;DHT22;3619;53.784;10.440;2023-03-19T02:48:29;9.20;99.90
7155;DHT22;3619;53.784;10.440;2023-03-19T02:50:57;9.10;99.90
7155;DHT22;3619;53.784;10.440;2023-03-19T02:53:24;9.30;99.90
7155;DHT22;3619;53.784;10.440;2023-03-19T02:55:53;9.30;99.90
7155;DHT22;3619;53.784;10.440;2023-03-19T02:58:20;9.20;99.90
7155;DHT22;3619;53.784;10.440;2023-03-19T03:00:48;9.30;99.90
7155;DHT22;3619;53.784;10.440;2023-03-19T03:03:19;9.30;99.90
7155;DHT22;3619;53.784;10.440;2023-03-19T03:05:46;9.30;99.90
7155;DHT22;3619;53.784;10.440;2023-03-19T03:08:13;9.20;99.90
7155;DHT22;3619;53.784;10.440;2023-03-19T03:10:40;9.20;99.90
7155;DHT22;3619;53.784;10.440;2023-03-19T03:13:06;9.10;99.90
7155;DHT22;3619;53.784;10.440;2023-03-19T03:15:33;9.10;99.90
7155;DHT22;3619;53.784;10.440;2023-03-19T03:18:02;9.10;99.90
7155;DHT22;3619;53.784;10.440;2023-03-19T03:20:28;9.00;99.90
7155;DHT22;3619;53.784;10.440;2023-03-19T03:22:55;8.90;99.90
7155;DHT22;3619;53.784;10.440;2023-03-19T03:25:24;8.80;99.90
7155;DHT22;3619;53.784;10.440;2023-03-19T03:27:54;8.80;99.90
7155;DHT22;3619;53.784;10.440;2023-03-19T03:30:20;8.80;99.90
7155;DHT22;3619;53.784;10.440;2023-03-19T03:32:49;8.90;99.90
7155;DHT22;3619;53.784;10.440;2023-03-19T03:35:50;8.90;99.90
7155;DHT22;3619;53.784;10.440;2023-03-19T03:38:17;8.80;99.90
7155;DHT22;3619;53.784;10.440;2023-03-19T03:40:45;8.80;99.90
7155;DHT22;3619;53.784;10.440;2023-03-19T03:43:20;8.80;99.90
7155;DHT22;3619;53.784;10.440;2023-03-19T03:46:30;8.70;99.90
7155;DHT22;3619;53.784;10.440;2023-03-19T03:49:27;8.70;99.90
7155;DHT22;3619;53.784;10.440;2023-03-19T03:55:05;8.60;99.90
7155;DHT22;3619;53.784;10.440;2023-03-19T03:57:35;8.60;99.90
7155;DHT22;3619;53.784;10.440;2023-03-19T04:00:05;8.60;99.90
7155;DHT22;3619;53.784;10.440;2023-03-19T04:02:42;8.60;99.90
7155;DHT22;3619;53.784;10.440;2023-03-19T04:05:12;8.70;99.90
7155;DHT22;3619;53.784;10.440;2023-03-19T04:07:39;8.70;99.90
7155;DHT22;3619;53.784;10.440;2023-03-19T04:10:25;8.70;99.90
7155;DHT22;3619;53.784;10.440;2023-03-19T04:12:57;8.60;99.90
7155;DHT22;3619;53.784;10.440;2023-03-19T04:15:27;8.60;99.90
7155;DHT22;3619;53.784;10.440;2023-03-19T04:17:54;8.60;99.90
7155;DHT22;3619;53.784;10.440;2023-03-19T04:20:23;8.50;99.90
7155;DHT22;3619;53.784;10.440;2023-03-19T04:22:50;8.50;99.90
7155;DHT22;3619;53.784;10.440;2023-03-19T04:25:19;8.50;99.90
7155;DHT22;3619;53.784;10.440;2023-03-19T04:27:47;8.50;99.90
7155;DHT22;3619;53.784;10.440;2023-03-19T04:30:14;8.50;99.90
7155;DHT22;3619;53.784;10.440;2023-03-19T04:32:41;8.40;99.90
7155;DHT22;3619;53.784;10.440;2023-03-19T04:35:09;8.50;99.90
7155;DHT22;3619;53.784;10.440;2023-03-19T04:37:36;8.40;99.90
7155;DHT22;3619;53.784;10.440;2023-03-19T04:40:06;8.50;99.90
7155;DHT22;3619;53.784;10.440;2023-03-19T04:42:33;8.50;99.90
7155;DHT22;3619;53.784;10.440;2023-03-19T04:45:02;8.50;99.90
7155;DHT22;3619;53.784;10.440;2023-03-19T04:47:29;8.40;99.90
7155;DHT22;3619;53.784;10.440;2023-03-19T04:49:56;8.40;99.90
7155;DHT22;3619;53.784;10.440;2023-03-19T04:52:25;8.40;99.90
7155;DHT22;3619;53.784;10.440;2023-03-19T04:54:53;8.40;99.90
7155;DHT22;3619;53.784;10.440;2023-03-19T04:57:22;8.40;99.90
7155;DHT22;3619;53.784;10.440;2023-03-19T04:59:49;8.40;99.90
7155;DHT22;3619;53.784;10.440;2023-03-19T05:02:18;8.30;99.90
7155;DHT22;3619;53.784;10.440;2023-03-19T05:04:44;8.40;99.90
7155;DHT22;3619;53.784;10.440;2023-03-19T05:07:11;8.30;99.90
7155;DHT22;3619;53.784;10.440;2023-03-19T05:09:41;8.30;99.90
7155;DHT22;3619;53.784;10.440;2023-03-19T05:12:11;8.30;99.90
7155;DHT22;3619;53.784;10.440;2023-03-19T05:14:38;8.40;99.90
7155;DHT22;3619;53.784;10.440;2023-03-19T05:17:05;8.50;99.90
7155;DHT22;3619;53.784;10.440;2023-03-19T05:19:37;8.60;99.90
7155;DHT22;3619;53.784;10.440;2023-03-19T05:22:04;8.60;99.90
7155;DHT22;3619;53.784;10.440;2023-03-19T05:24:31;8.40;99.90
7155;DHT22;3619;53.784;10.440;2023-03-19T05:26:57;8.50;99.90
7155;DHT22;3619;53.784;10.440;2023-03-19T05:29:27;8.40;99.90
7155;DHT22;3619;53.784;10.440;2023-03-19T05:31:54;8.50;99.90
7155;DHT22;3619;53.784;10.440;2023-03-19T05:34:21;8.50;99.90
7155;DHT22;3619;53.784;10.440;2023-03-19T05:36:49;8.40;99.90
7155;DHT22;3619;53.784;10.440;2023-03-19T05:39:16;8.50;99.90
7155;DHT22;3619;53.784;10.440;2023-03-19T05:41:46;8.50;99.90
7155;DHT22;3619;53.784;10.440;2023-03-19T05:44:13;8.60;99.90
7155;DHT22;3619;53.784;10.440;2023-03-19T05:46:39;8.60;99.90
7155;DHT22;3619;53.784;10.440;2023-03-19T05:49:08;8.70;99.90
7155;DHT22;3619;53.784;10.440;2023-03-19T05:51:35;8.80;99.90
7155;DHT22;3619;53.784;10.440;2023-03-19T05:54:07;8.70;99.90
7155;DHT22;3619;53.784;10.440;2023-03-19T05:56:33;8.80;99.90
7155;DHT22;3619;53.784;10.440;2023-03-19T05:59:01;8.80;99.90
7155;DHT22;3619;53.784;10.440;2023-03-19T06:01:30;8.80;99.90
7155;DHT22;3619;53.784;10.440;2023-03-19T06:03:56;8.80;99.90
7155;DHT22;3619;53.784;10.440;2023-03-19T06:06:25;8.80;99.90
7155;DHT22;3619;53.784;10.440;2023-03-19T06:08:52;8.90;99.90
7155;DHT22;3619;53.784;10.440;2023-03-19T06:11:26;8.90;99.90
7155;DHT22;3619;53.784;10.440;2023-03-19T06:13:58;8.90;99.90
7155;DHT22;3619;53.784;10.440;2023-03-19T06:16:27;8.90;99.90
7155;DHT22;3619;53.784;10.440;2023-03-19T06:18:57;8.90;99.90
7155;DHT22;3619;53.784;10.440;2023-03-19T06:21:24;9.00;99.90
7155;DHT22;3619;53.784;10.440;2023-03-19T06:23:54;9.00;99.90
7155;DHT22;3619;53.784;10.440;2023-03-19T06:26:22;9.00;99.90
7155;DHT22;3619;53.784;10.440;2023-03-19T06:28:52;9.00;99.90
7155;DHT22;3619;53.784;10.440;2023-03-19T06:31:19;9.10;99.90
7155;DHT22;3619;53.784;10.440;2023-03-19T06:33:46;9.10;99.90
7155;DHT22;3619;53.784;10.440;2023-03-19T06:36:13;9.20;99.90
7155;DHT22;3619;53.784;10.440;2023-03-19T06:38:40;9.20;99.90
7155;DHT22;3619;53.784;10.440;2023-03-19T06:41:07;9.30;99.90
7155;DHT22;3619;53.784;10.440;2023-03-19T06:43:35;9.40;99.90
7155;DHT22;3619;53.784;10.440;2023-03-19T06:46:02;9.40;99.90
7155;DHT22;3619;53.784;10.440;2023-03-19T06:48:29;9.40;99.90
7155;DHT22;3619;53.784;10.440;2023-03-19T06:50:56;9.50;99.90
7155;DHT22;3619;53.784;10.440;2023-03-19T06:53:23;9.50;99.90
7155;DHT22;3619;53.784;10.440;2023-03-19T06:55:52;9.60;99.90
7155;DHT22;3619;53.784;10.440;2023-03-19T06:58:29;9.60;99.90
7155;DHT22;3619;53.784;10.440;2023-03-19T07:01:00;9.70;99.90
7155;DHT22;3619;53.784;10.440;2023-03-19T07:03:27;9.60;99.90
7155;DHT22;3619;53.784;10.440;2023-03-19T07:05:54;9.70;99.90
7155;DHT22;3619;53.784;10.440;2023-03-19T07:08:23;9.80;99.90
7155;DHT22;3619;53.784;10.440;2023-03-19T07:10:54;9.80;99.90
7155;DHT22;3619;53.784;10.440;2023-03-19T07:13:23;9.80;99.90
7155;DHT22;3619;53.784;10.440;2023-03-19T07:15:54;9.90;99.90
7155;DHT22;3619;53.784;10.440;2023-03-19T07:18:22;9.90;99.90
7155;DHT22;3619;53.784;10.440;2023-03-19T07:20:51;9.90;99.90
7155;DHT22;3619;53.784;10.440;2023-03-19T07:23:20;10.00;99.90
7155;DHT22;3619;53.784;10.440;2023-03-19T07:25:47;10.00;99.90
7155;DHT22;3619;53.784;10.440;2023-03-19T07:28:17;10.10;99.90
7155;DHT22;3619;53.784;10.440;2023-03-19T07:30:44;10.20;99.90
7155;DHT22;3619;53.784;10.440;2023-03-19T07:33:11;10.30;99.90
7155;DHT22;3619;53.784;10.440;2023-03-19T07:35:41;10.60;99.90
7155;DHT22;3619;53.784;10.440;2023-03-19T07:38:08;10.80;99.90
7155;DHT22;3619;53.784;10.440;2023-03-19T07:40:35;10.90;99.90
7155;DHT22;3619;53.784;10.440;2023-03-19T07:43:04;11.00;99.90
7155;DHT22;3619;53.784;10.440;2023-03-19T07:45:36;11.10;99.90
7155;DHT22;3619;53.784;10.440;2023-03-19T07:48:04;11.20;99.90
7155;DHT22;3619;53.784;10.440;2023-03-19T07:50:33;11.30;99.90
7155;DHT22;3619;53.784;10.440;2023-03-19T07:53:01;11.40;99.90
7155;DHT22;3619;53.784;10.440;2023-03-19T07:55:30;11.80;99.90
7155;DHT22;3619;53.784;10.440;2023-03-19T07:57:57;12.20;99.90
7155;DHT22;3619;53.784;10.440;2023-03-19T08:00:24;12.70;99.90
7155;DHT22;3619;53.784;10.440;2023-03-19T08:02:53;13.10;99.90
7155;DHT22;3619;53.784;10.440;2023-03-19T08:05:20;13.50;99.90
7155;DHT22;3619;53.784;10.440;2023-03-19T08:07:47;13.90;99.90
7155;DHT22;3619;53.784;10.440;2023-03-19T08:10:17;14.10;99.90
7155;DHT22;3619;53.784;10.440;2023-03-19T08:12:44;14.40;99.90
7155;DHT22;3619;53.784;10.440;2023-03-19T08:15:12;14.60;99.90
7155;DHT22;3619;53.784;10.440;2023-03-19T08:17:40;15.10;99.90
7155;DHT22;3619;53.784;10.440;2023-03-19T08:20:10;15.30;99.90
7155;DHT22;3619;53.784;10.440;2023-03-19T08:22:38;15.50;99.90
7155;DHT22;3619;53.784;10.440;2023-03-19T08:25:10;15.40;99.90
7155;DHT22;3619;53.784;10.440;2023-03-19T08:27:42;15.20;99.90
7155;DHT22;3619;53.784;10.440;2023-03-19T08:30:10;15.20;99.90
7155;DHT22;3619;53.784;10.440;2023-03-19T08:32:38;15.40;99.90
7155;DHT22;3619;53.784;10.440;2023-03-19T08:35:06;15.60;99.90
7155;DHT22;3619;53.784;10.440;2023-03-19T08:37:38;15.70;99.90
7155;DHT22;3619;53.784;10.440;2023-03-19T08:40:06;16.00;99.90
7155;DHT22;3619;53.784;10.440;2023-03-19T08:42:35;16.10;99.90
7155;DHT22;3619;53.784;10.440;2023-03-19T08:45:08;16.20;99.90
7155;DHT22;3619;53.784;10.440;2023-03-19T08:47:35;16.50;99.90
7155;DHT22;3619;53.784;10.440;2023-03-19T08:50:02;16.70;99.90
7155;DHT22;3619;53.784;10.440;2023-03-19T08:52:31;17.00;99.90
7155;DHT22;3619;53.784;10.440;2023-03-19T08:54:58;17.20;99.90
7155;DHT22;3619;53.784;10.440;2023-03-19T08:57:25;17.30;99.90
7155;DHT22;3619;53.784;10.440;2023-03-19T08:59:52;17.30;99.90
7155;DHT22;3619;53.784;10.440;2023-03-19T09:02:21;17.00;99.90
7155;DHT22;3619;53.784;10.440;2023-03-19T09:04:48;17.00;99.90
7155;DHT22;3619;53.784;10.440;2023-03-19T09:07:15;17.00;99.90
7155;DHT22;3619;53.784;10.440;2023-03-19T09:09:43;16.80;99.90
7155;DHT22;3619;53.784;10.440;2023-03-19T09:12:12;16.60;99.90
7155;DHT22;3619;53.784;10.440;2023-03-19T09:14:40;16.50;99.90
7155;DHT22;3619;53.784;10.440;2023-03-19T09:17:07;16.50;99.90
7155;DHT22;3619;53.784;10.440;2023-03-19T09:19:37;16.40;99.90
7155;DHT22;3619;53.784;10.440;2023-03-19T09:22:04;16.30;99.90
7155;DHT22;3619;53.784;10.440;2023-03-19T09:24:31;16.10;99.90
7155;DHT22;3619;53.784;10.440;2023-03-19T09:27:00;16.00;99.90
7155;DHT22;3619;53.784;10.440;2023-03-19T09:29:27;16.00;99.90
7155;DHT22;3619;53.784;10.440;2023-03-19T09:32:01;15.80;99.90
7155;DHT22;3619;53.784;10.440;2023-03-19T09:34:34;15.70;99.90
7155;DHT22;3619;53.784;10.440;2023-03-19T09:37:03;15.80;99.90
7155;DHT22;3619;53.784;10.440;2023-03-19T09:39:30;15.80;99.90
7155;DHT22;3619;53.784;10.440;2023-03-19T09:42:11;16.10;99.90
7155;DHT22;3619;53.784;10.440;2023-03-19T09:44:45;16.30;99.90
7155;DHT22;3619;53.784;10.440;2023-03-19T09:47:23;16.50;99.90
7155;DHT22;3619;53.784;10.440;2023-03-19T09:49:53;17.00;99.90
7155;DHT22;3619;53.784;10.440;2023-03-19T09:52:32;17.40;99.90
7155;DHT22;3619;53.784;10.440;2023-03-19T09:55:05;17.90;99.90
7155;DHT22;3619;53.784;10.440;2023-03-19T09:57:41;18.20;99.90
7155;DHT22;3619;53.784;10.440;2023-03-19T10:00:22;18.00;99.90
7155;DHT22;3619;53.784;10.440;2023-03-19T10:02:55;18.20;99.90
7155;DHT22;3619;53.784;10.440;2023-03-19T10:05:31;18.20;99.90
7155;DHT22;3619;53.784;10.440;2023-03-19T10:08:29;18.20;99.90
7155;DHT22;3619;53.784;10.440;2023-03-19T10:11:13;18.50;99.90
7155;DHT22;3619;53.784;10.440;2023-03-19T10:13:53;18.60;99.90
7155;DHT22;3619;53.784;10.440;2023-03-19T10:16:28;18.70;99.90
7155;DHT22;3619;53.784;10.440;2023-03-19T10:18:58;18.80;99.90
7155;DHT22;3619;53.784;10.440;2023-03-19T10:21:30;18.90;99.90
7155;DHT22;3619;53.784;10.440;2023-03-19T10:24:03;19.00;99.90
7155;DHT22;3619;53.784;10.440;2023-03-19T10:26:36;18.90;99.90
7155;DHT22;3619;53.784;10.440;2023-03-19T10:29:06;19.30;99.90
7155;DHT22;3619;53.784;10.440;2023-03-19T10:32:00;19.60;99.90
7155;DHT22;3619;53.784;10.440;2023-03-19T10:34:33;19.90;99.90
7155;DHT22;3619;53.784;10.440;2023-03-19T10:37:01;19.70;99.90
7155;DHT22;3619;53.784;10.440;2023-03-19T10:39:35;19.10;99.90
7155;DHT22;3619;53.784;10.440;2023-03-19T10:42:37;18.70;99.90
7155;DHT22;3619;53.784;10.440;2023-03-19T10:45:19;18.10;99.90
7155;DHT22;3619;53.784;10.440;2023-03-19T10:47:46;17.60;99.90
7155;DHT22;3619;53.784;10.440;2023-03-19T10:50:17;17.40;99.90
7155;DHT22;3619;53.784;10.440;2023-03-19T10:52:49;17.50;99.90
7155;DHT22;3619;53.784;10.440;2023-03-19T10:55:22;17.80;99.90
7155;DHT22;3619;53.784;10.440;2023-03-19T10:58:02;18.00;99.90
7155;DHT22;3619;53.784;10.440;2023-03-19T11:00:38;18.30;99.90
7155;DHT22;3619;53.784;10.440;2023-03-19T11:03:27;18.40;99.90
7155;DHT22;3619;53.784;10.440;2023-03-19T11:06:03;18.90;99.90
7155;DHT22;3619;53.784;10.440;2023-03-19T11:08:34;19.50;99.90
7155;DHT22;3619;53.784;10.440;2023-03-19T11:11:03;20.10;99.90
7155;DHT22;3619;53.784;10.440;2023-03-19T11:13:33;20.50;99.90
7155;DHT22;3619;53.784;10.440;2023-03-19T11:16:04;20.50;99.90
7155;DHT22;3619;53.784;10.440;2023-03-19T11:18:36;20.60;99.90
7155;DHT22;3619;53.784;10.440;2023-03-19T11:21:19;20.80;99.90
7155;DHT22;3619;53.784;10.440;2023-03-19T11:23:51;20.70;99.90
7155;DHT22;3619;53.784;10.440;2023-03-19T11:26:20;20.60;99.90
7155;DHT22;3619;53.784;10.440;2023-03-19T11:28:50;20.30;99.90
7155;DHT22;3619;53.784;10.440;2023-03-19T11:31:22;20.00;99.90
7155;DHT22;3619;53.784;10.440;2023-03-19T11:34:14;19.70;99.90
7155;DHT22;3619;53.784;10.440;2023-03-19T11:36:47;19.30;99.90
7155;DHT22;3619;53.784;10.440;2023-03-19T11:39:25;19.00;99.90
7155;DHT22;3619;53.784;10.440;2023-03-19T11:44:54;18.60;99.90
7155;DHT22;3619;53.784;10.440;2023-03-19T11:47:29;18.60;99.90
7155;DHT22;3619;53.784;10.440;2023-03-19T11:50:12;18.40;99.90
7155;DHT22;3619;53.784;10.440;2023-03-19T11:52:57;18.30;99.90
7155;DHT22;3619;53.784;10.440;2023-03-19T11:55:32;18.00;99.90
7155;DHT22;3619;53.784;10.440;2023-03-19T11:58:20;17.70;99.90
7155;DHT22;3619;53.784;10.440;2023-03-19T12:00:56;17.40;99.90
7155;DHT22;3619;53.784;10.440;2023-03-19T12:03:58;17.70;99.90
7155;DHT22;3619;53.784;10.440;2023-03-19T12:06:35;17.80;99.90
7155;DHT22;3619;53.784;10.440;2023-03-19T12:09:14;17.90;99.90
7155;DHT22;3619;53.784;10.440;2023-03-19T12:11:48;18.20;99.90
7155;DHT22;3619;53.784;10.440;2023-03-19T12:14:32;18.60;99.90
7155;DHT22;3619;53.784;10.440;2023-03-19T12:17:16;18.80;99.90
7155;DHT22;3619;53.784;10.440;2023-03-19T12:20:30;19.00;99.90
7155;DHT22;3619;53.784;10.440;2023-03-19T12:23:13;19.30;99.90
7155;DHT22;3619;53.784;10.440;2023-03-19T12:25:52;19.10;99.90
7155;DHT22;3619;53.784;10.440;2023-03-19T12:28:29;19.10;99.90
7155;DHT22;3619;53.784;10.440;2023-03-19T12:31:24;18.70;99.90
7155;DHT22;3619;53.784;10.440;2023-03-19T12:34:00;18.20;99.90
7155;DHT22;3619;53.784;10.440;2023-03-19T12:36:34;17.80;99.90
7155;DHT22;3619;53.784;10.440;2023-03-19T12:39:08;17.90;99.90
7155;DHT22;3619;53.784;10.440;2023-03-19T12:41:42;18.70;99.90
7155;DHT22;3619;53.784;10.440;2023-03-19T12:44:16;18.70;99.90
7155;DHT22;3619;53.784;10.440;2023-03-19T12:46:49;18.30;99.90
7155;DHT22;3619;53.784;10.440;2023-03-19T12:49:23;18.10;99.90
7155;DHT22;3619;53.784;10.440;2023-03-19T12:51:54;18.40;99.90
7155;DHT22;3619;53.784;10.440;2023-03-19T12:54:25;18.60;99.90
7155;DHT22;3619;53.784;10.440;2023-03-19T12:56:57;18.20;99.90
7155;DHT22;3619;53.784;10.440;2023-03-19T12:59:31;17.70;99.90
7155;DHT22;3619;53.784;10.440;2023-03-19T13:02:03;17.50;99.90
7155;DHT22;3619;53.784;10.440;2023-03-19T13:04:43;17.30;99.90
7155;DHT22;3619;53.784;10.440;2023-03-19T13:07:42;16.80;99.90
7155;DHT22;3619;53.784;10.440;2023-03-19T13:10:19;16.60;99.90
7155;DHT22;3619;53.784;10.440;2023-03-19T13:12:52;16.30;99.90
7155;DHT22;3619;53.784;10.440;2023-03-19T13:15:25;16.10;99.90
7155;DHT22;3619;53.784;10.440;2023-03-19T13:18:04;16.00;99.90
7155;DHT22;3619;53.784;10.440;2023-03-19T13:20:55;15.90;99.90
7155;DHT22;3619;53.784;10.440;2023-03-19T13:23:25;15.70;99.90
7155;DHT22;3619;53.784;10.440;2023-03-19T13:25:55;15.50;99.90
7155;DHT22;3619;53.784;10.440;2023-03-19T13:28:27;15.20;99.90
7155;DHT22;3619;53.784;10.440;2023-03-19T13:30:59;15.10;99.90
7155;DHT22;3619;53.784;10.440;2023-03-19T13:33:27;15.10;99.90
7155;DHT22;3619;53.784;10.440;2023-03-19T13:35:57;14.90;99.90
7155;DHT22;3619;53.784;10.440;2023-03-19T13:38:28;14.90;99.90
7155;DHT22;3619;53.784;10.440;2023-03-19T13:41:01;14.90;99.90
7155;DHT22;3619;53.784;10.440;2023-03-19T13:43:41;14.90;99.90
7155;DHT22;3619;53.784;10.440;2023-03-19T13:46:40;14.70;99.90
7155;DHT22;3619;53.784;10.440;2023-03-19T13:49:30;14.60;99.90
7155;DHT22;3619;53.784;10.440;2023-03-19T13:55:27;14.50;99.90
7155;DHT22;3619;53.784;10.440;2023-03-19T13:58:05;14.60;99.90
7155;DHT22;3619;53.784;10.440;2023-03-19T14:00:58;14.90;99.90
7155;DHT22;3619;53.784;10.440;2023-03-19T14:03:29;15.20;99.90
7155;DHT22;3619;53.784;10.440;2023-03-19T14:06:00;15.50;99.90
7155;DHT22;3619;53.784;10.440;2023-03-19T14:08:31;15.70;99.90
7155;DHT22;3619;53.784;10.440;2023-03-19T14:11:02;15.80;99.90
7155;DHT22;3619;53.784;10.440;2023-03-19T14:13:36;15.80;99.90
7155;DHT22;3619;53.784;10.440;2023-03-19T14:16:06;15.60;99.90
7155;DHT22;3619;53.784;10.440;2023-03-19T14:18:39;15.50;99.90
7155;DHT22;3619;53.784;10.440;2023-03-19T14:21:13;15.30;99.90
7155;DHT22;3619;53.784;10.440;2023-03-19T14:23:52;15.10;99.90
7155;DHT22;3619;53.784;10.440;2023-03-19T14:26:22;15.10;99.90
7155;DHT22;3619;53.784;10.440;2023-03-19T14:29:00;15.10;99.90
7155;DHT22;3619;53.784;10.440;2023-03-19T14:31:32;15.00;99.90
7155;DHT22;3619;53.784;10.440;2023-03-19T14:34:03;14.90;99.90
7155;DHT22;3619;53.784;10.440;2023-03-19T14:36:43;14.80;99.90
7155;DHT22;3619;53.784;10.440;2023-03-19T14:39:19;14.80;99.90
7155;DHT22;3619;53.784;10.440;2023-03-19T14:41:49;15.00;99.90
7155;DHT22;3619;53.784;10.440;2023-03-19T14:44:38;15.00;99.90
7155;DHT22;3619;53.784;10.440;2023-03-19T14:47:44;15.00;99.90
7155;DHT22;3619;53.784;10.440;2023-03-19T14:50:30;15.00;99.90
7155;DHT22;3619;53.784;10.440;2023-03-19T14:53:10;15.00;99.90
7155;DHT22;3619;53.784;10.440;2023-03-19T14:55:41;15.00;99.90
7155;DHT22;3619;53.784;10.440;2023-03-19T14:58:12;15.00;99.90
7155;DHT22;3619;53.784;10.440;2023-03-19T15:00:41;15.00;99.90
7155;DHT22;3619;53.784;10.440;2023-03-19T15:03:28;14.90;99.90
7155;DHT22;3619;53.784;10.440;2023-03-19T15:05:57;14.80;99.90
7155;DHT22;3619;53.784;10.440;2023-03-19T15:08:29;14.70;99.90
7155;DHT22;3619;53.784;10.440;2023-03-19T15:11:05;14.40;99.90
7155;DHT22;3619;53.784;10.440;2023-03-19T15:13:46;14.30;99.90
7155;DHT22;3619;53.784;10.440;2023-03-19T15:16:32;14.00;99.90
7155;DHT22;3619;53.784;10.440;2023-03-19T15:19:01;13.90;99.90
7155;DHT22;3619;53.784;10.440;2023-03-19T15:21:28;13.90;99.90
7155;DHT22;3619;53.784;10.440;2023-03-19T15:24:16;13.90;99.90
7155;DHT22;3619;53.784;10.440;2023-03-19T15:26:45;13.90;99.90
7155;DHT22;3619;53.784;10.440;2023-03-19T15:29:12;13.90;99.90
7155;DHT22;3619;53.784;10.440;2023-03-19T15:31:44;14.10;99.90
7155;DHT22;3619;53.784;10.440;2023-03-19T15:34:19;14.00;99.90
7155;DHT22;3619;53.784;10.440;2023-03-19T15:36:47;14.00;99.90
7155;DHT22;3619;53.784;10.440;2023-03-19T15:39:18;14.10;99.90
7155;DHT22;3619;53.784;10.440;2023-03-19T15:41:48;14.10;99.90
7155;DHT22;3619;53.784;10.440;2023-03-19T15:44:17;14.00;99.90
7155;DHT22;3619;53.784;10.440;2023-03-19T15:46:46;14.10;99.90
7155;DHT22;3619;53.784;10.440;2023-03-19T15:49:16;14.00;99.90
7155;DHT22;3619;53.784;10.440;2023-03-19T15:51:45;14.00;99.90
7155;DHT22;3619;53.784;10.440;2023-03-19T15:54:18;14.00;99.90
7155;DHT22;3619;53.784;10.440;2023-03-19T15:56:46;14.00;99.90
7155;DHT22;3619;53.784;10.440;2023-03-19T15:59:14;14.10;99.90
7155;DHT22;3619;53.784;10.440;2023-03-19T16:01:42;14.10;99.90
7155;DHT22;3619;53.784;10.440;2023-03-19T16:04:14;14.10;99.90
7155;DHT22;3619;53.784;10.440;2023-03-19T16:06:46;14.10;99.90
7155;DHT22;3619;53.784;10.440;2023-03-19T16:09:21;14.10;99.90
7155;DHT22;3619;53.784;10.440;2023-03-19T16:11:49;14.10;99.90
7155;DHT22;3619;53.784;10.440;2023-03-19T16:14:25;14.00;99.90
7155;DHT22;3619;53.784;10.440;2023-03-19T16:16:58;13.90;99.90
7155;DHT22;3619;53.784;10.440;2023-03-19T16:19:31;13.90;99.90
7155;DHT22;3619;53.784;10.440;2023-03-19T16:21:59;13.80;99.90
7155;DHT22;3619;53.784;10.440;2023-03-19T16:24:30;13.70;99.90
7155;DHT22;3619;53.784;10.440;2023-03-19T16:27:02;13.70;99.90
7155;DHT22;3619;53.784;10.440;2023-03-19T16:29:34;13.60;99.90
7155;DHT22;3619;53.784;10.440;2023-03-19T16:32:13;13.60;99.90
7155;DHT22;3619;53.784;10.440;2023-03-19T16:34:44;13.60;99.90
7155;DHT22;3619;53.784;10.440;2023-03-19T16:37:33;13.60;99.90